Time;durP1;ratioP1;P1;durP2;ratioP2;P2;SDS_P1;SDS_P2;PMS_P1;PMS_P2;Temp;Humidity;BMP_temperature;BMP_pressure;BME280_temperature;BME280_humidity;BME280_pressure;Samples;Min_cycle;Max_cycle;Signal;HPM_P1;HPM_P2
2023/11/22 00:01:13;;;;;;;11.33;5.00;;;7.50;99.90;;;;;;4149337;28;20641;-92
2023/11/22 00:03:14;;;;;;;13.00;5.47;;;7.50;99.90;;;;;;4165665;28;20211;-93
2023/11/22 00:05:14;;;;;;;11.90;5.13;;;7.50;99.90;;;;;;4165620;28;20172;-92
2023/11/22 00:07:16;;;;;;;12.97;5.37;;;7.50;99.90;;;;;;4149186;28;20192;-93
2023/11/22 00:09:21;;;;;;;9.43;4.83;;;7.40;99.90;;;;;;4149021;28;20237;-92
2023/11/22 00:11:22;;;;;;;13.10;4.80;;;7.20;99.90;;;;;;4149034;28;20200;-91
2023/11/22 00:13:23;;;;;;;15.63;5.57;;;7.30;99.90;;;;;;4149189;28;20195;-93
2023/11/22 00:15:24;;;;;;;12.20;5.20;;;7.40;99.90;;;;;;4165275;28;20164;-93
2023/11/22 00:17:24;;;;;;;14.03;5.67;;;7.40;99.90;;;;;;4148953;28;20676;-92
2023/11/22 00:19:25;;;;;;;10.70;5.03;;;7.40;99.90;;;;;;4165259;28;20652;-92
2023/11/22 00:21:26;;;;;;;10.17;4.30;;;7.40;99.90;;;;;;4148824;28;20173;-91
2023/11/22 00:23:29;;;;;;;11.37;5.27;;;7.30;99.90;;;;;;4165087;28;20624;-92
2023/11/22 00:25:30;;;;;;;11.07;5.10;;;7.30;99.90;;;;;;4148663;28;20264;-91
2023/11/22 00:27:31;;;;;;;12.20;4.60;;;7.40;99.90;;;;;;4165120;28;20172;-91
2023/11/22 00:29:32;;;;;;;13.87;4.80;;;7.30;99.90;;;;;;4148678;28;20342;-91
2023/11/22 00:31:33;;;;;;;9.87;4.40;;;7.30;99.90;;;;;;4164581;28;20200;-91
2023/11/22 00:33:34;;;;;;;11.53;5.20;;;7.20;99.90;;;;;;4148826;28;20267;-92
2023/11/22 00:35:35;;;;;;;14.23;4.50;;;7.20;99.90;;;;;;4148782;28;20188;-92
2023/11/22 00:37:36;;;;;;;17.53;4.40;;;7.10;99.90;;;;;;4148673;28;20561;-91
2023/11/22 00:39:37;;;;;;;9.50;5.10;;;7.10;99.90;;;;;;4148526;28;20197;-91
2023/11/22 00:41:37;;;;;;;14.90;5.13;;;7.10;99.90;;;;;;4148669;28;20177;-91
2023/11/22 00:43:38;;;;;;;14.67;5.40;;;7.10;99.90;;;;;;4148363;28;20173;-93
2023/11/22 00:45:40;;;;;;;15.07;5.20;;;7.10;99.90;;;;;;4148469;28;20304;-91
2023/11/22 00:47:42;;;;;;;10.90;5.17;;;7.20;99.90;;;;;;4148339;28;20274;-93
2023/11/22 00:49:43;;;;;;;8.83;4.03;;;7.30;99.90;;;;;;4148418;28;20197;-92
2023/11/22 00:51:45;;;;;;;13.43;5.83;;;7.20;99.90;;;;;;4148186;28;20593;-91
2023/11/22 00:53:45;;;;;;;11.17;5.40;;;7.20;99.90;;;;;;4164666;28;20259;-92
2023/11/22 00:55:46;;;;;;;17.40;5.53;;;7.20;99.90;;;;;;4148261;28;20695;-93
2023/11/22 00:57:47;;;;;;;14.00;4.47;;;7.20;99.90;;;;;;4148438;28;20173;-92
2023/11/22 00:59:48;;;;;;;8.57;4.00;;;7.20;99.90;;;;;;4148219;28;20195;-91
2023/11/22 01:01:48;;;;;;;8.90;4.73;;;7.10;99.90;;;;;;4164531;28;20234;-91
2023/11/22 01:03:49;;;;;;;9.33;4.10;;;7.10;99.90;;;;;;4148155;28;20187;-91
2023/11/22 01:05:50;;;;;;;12.83;4.27;;;7.10;99.90;;;;;;4148271;28;20173;-92
2023/11/22 01:07:51;;;;;;;13.13;5.77;;;7.10;99.90;;;;;;4164648;28;20254;-92
2023/11/22 01:09:53;;;;;;;15.50;5.60;;;7.20;99.90;;;;;;4148297;28;20239;-93
2023/11/22 01:11:53;;;;;;;12.53;5.07;;;7.20;99.90;;;;;;4148185;28;20192;-92
2023/11/22 01:13:54;;;;;;;13.40;5.27;;;7.20;99.90;;;;;;4148210;28;20180;-92
2023/11/22 01:15:55;;;;;;;8.30;4.37;;;7.30;99.90;;;;;;4164547;28;20254;-92
2023/11/22 01:17:56;;;;;;;11.20;4.27;;;7.20;99.90;;;;;;4148327;28;20184;-92
2023/11/22 01:19:58;;;;;;;10.43;5.40;;;7.10;99.90;;;;;;4164449;28;20215;-92
2023/11/22 01:21:59;;;;;;;14.27;5.00;;;7.10;99.90;;;;;;4148307;28;20173;-93
2023/11/22 01:24:01;;;;;;;10.33;5.23;;;7.10;99.90;;;;;;4164578;28;20168;-93
2023/11/22 01:26:03;;;;;;;12.33;5.47;;;7.10;99.90;;;;;;4148093;28;20176;-92
2023/11/22 01:28:03;;;;;;;10.87;4.63;;;7.10;99.90;;;;;;4148488;28;20180;-92
2023/11/22 01:30:07;;;;;;;11.03;4.53;;;7.20;99.90;;;;;;4148161;28;20231;-91
2023/11/22 01:32:08;;;;;;;16.17;5.43;;;7.00;99.90;;;;;;4148218;28;20271;-91
2023/11/22 01:34:09;;;;;;;12.23;5.63;;;7.00;99.90;;;;;;4147899;28;20180;-92
2023/11/22 01:36:10;;;;;;;10.83;5.13;;;7.00;99.90;;;;;;4164408;28;20664;-93
2023/11/22 01:38:11;;;;;;;11.50;4.57;;;7.00;99.90;;;;;;4148161;28;20173;-92
2023/11/22 01:40:12;;;;;;;12.73;5.30;;;7.00;99.90;;;;;;4148030;28;20177;-93
2023/11/22 01:42:13;;;;;;;14.63;5.93;;;7.10;99.90;;;;;;4148009;28;20693;-91
2023/11/22 01:44:14;;;;;;;11.50;5.27;;;6.90;99.90;;;;;;4149156;28;20177;-93
2023/11/22 01:46:23;;;;;;;11.60;5.93;;;6.80;99.90;;;;;;4151383;28;20192;-93
2023/11/22 01:48:25;;;;;;;12.33;4.00;;;6.70;99.90;;;;;;4151068;28;20168;-94
2023/11/22 01:50:26;;;;;;;9.80;4.90;;;6.90;99.90;;;;;;4167340;28;20676;-91
2023/11/22 01:52:27;;;;;;;8.87;4.53;;;6.80;99.90;;;;;;4151310;28;20209;-92
2023/11/22 01:54:29;;;;;;;8.77;4.93;;;6.70;99.90;;;;;;4151276;28;20231;-92
2023/11/22 01:56:31;;;;;;;15.60;6.07;;;6.30;99.90;;;;;;4151056;28;20189;-92
2023/11/22 01:58:32;;;;;;;11.10;3.53;;;6.00;99.90;;;;;;4167430;28;20195;-93
2023/11/22 02:00:45;;;;;;;10.60;4.37;;;5.70;99.90;;;;;;4167492;28;20175;-95
2023/11/22 02:02:46;;;;;;;9.87;4.00;;;5.60;99.90;;;;;;4151002;28;20568;-93
2023/11/22 02:04:46;;;;;;;9.67;4.63;;;5.60;99.90;;;;;;4150819;28;20184;-92
2023/11/22 02:06:47;;;;;;;10.20;4.17;;;5.50;99.90;;;;;;4151016;28;20169;-92
2023/11/22 02:08:48;;;;;;;8.70;3.80;;;6.00;99.90;;;;;;4167139;28;20195;-93
2023/11/22 02:10:59;;;;;;;10.43;4.33;;;6.00;99.90;;;;;;4167096;28;20175;-91
2023/11/22 02:13:04;;;;;;;11.40;4.03;;;5.60;99.90;;;;;;4150799;28;20195;-93
2023/11/22 02:15:05;;;;;;;9.47;3.83;;;5.60;99.90;;;;;;4150674;28;20168;-94
2023/11/22 02:17:06;;;;;;;13.17;4.73;;;5.50;99.90;;;;;;4167084;28;20168;-91
2023/11/22 02:19:16;;;;;;;9.03;3.93;;;5.60;99.90;;;;;;4150699;28;20235;-93
2023/11/22 02:21:17;;;;;;;8.87;3.73;;;6.10;99.90;;;;;;4167094;28;20164;-93
2023/11/22 02:23:18;;;;;;;7.97;4.37;;;6.30;99.90;;;;;;4167096;28;20271;-93
2023/11/22 02:25:20;;;;;;;9.07;4.03;;;6.50;99.90;;;;;;4150560;28;20169;-93
2023/11/22 02:27:21;;;;;;;8.67;4.20;;;6.80;99.90;;;;;;4150601;28;20173;-93
2023/11/22 02:29:22;;;;;;;9.80;3.93;;;7.10;99.90;;;;;;4166676;28;20188;-93
2023/11/22 02:31:23;;;;;;;8.30;3.60;;;7.20;99.90;;;;;;4166898;28;20573;-94
2023/11/22 02:33:24;;;;;;;7.50;3.87;;;6.90;99.90;;;;;;4150472;28;20172;-94
2023/11/22 02:35:26;;;;;;;9.60;4.57;;;7.00;99.90;;;;;;4150670;28;20641;-92
2023/11/22 02:37:27;;;;;;;10.87;4.40;;;7.30;99.90;;;;;;4150183;28;20177;-93
2023/11/22 02:39:54;;;;;;;10.13;3.77;;;7.50;99.90;;;;;;4150276;28;20192;-92
2023/11/22 02:41:56;;;;;;;10.43;4.53;;;7.50;99.90;;;;;;4150105;28;20169;-95
2023/11/22 02:43:57;;;;;;;8.13;3.90;;;7.40;99.90;;;;;;4150260;28;20728;-93
2023/11/22 02:45:57;;;;;;;9.97;4.20;;;7.30;99.90;;;;;;4150361;28;20661;-93
2023/11/22 02:48:01;;;;;;;8.87;4.07;;;7.20;99.90;;;;;;4166843;28;20239;-92
2023/11/22 02:50:05;;;;;;;8.87;4.67;;;7.10;99.90;;;;;;4149807;28;20197;-90
2023/11/22 02:52:06;;;;;;;7.13;3.27;;;7.00;99.90;;;;;;4149725;28;20216;-91
2023/11/22 02:54:06;;;;;;;11.10;4.27;;;7.20;99.90;;;;;;4166486;28;20178;-94
2023/11/22 02:56:07;;;;;;;9.40;4.93;;;7.40;99.90;;;;;;4149921;28;20189;-93
2023/11/22 02:58:08;;;;;;;12.17;4.93;;;7.50;99.90;;;;;;4149877;28;20165;-93
2023/11/22 03:00:18;;;;;;;18.73;5.50;;;7.50;99.90;;;;;;4149818;28;20184;-93
2023/11/22 03:02:19;;;;;;;16.53;5.47;;;7.50;99.90;;;;;;4150007;28;20180;-93
2023/11/22 03:04:20;;;;;;;12.17;4.73;;;7.50;99.90;;;;;;4149924;28;20181;-92
2023/11/22 03:06:20;;;;;;;10.93;4.30;;;7.50;99.90;;;;;;4149873;28;20173;-93
2023/11/22 03:08:21;;;;;;;13.17;5.53;;;7.50;99.90;;;;;;4166026;28;20199;-93
2023/11/22 03:10:22;;;;;;;15.50;4.93;;;7.10;99.90;;;;;;4149859;28;20727;-91
2023/11/22 03:12:23;;;;;;;10.10;4.63;;;7.10;99.90;;;;;;4149756;28;20665;-94
2023/11/22 03:14:24;;;;;;;9.43;4.43;;;7.20;99.90;;;;;;4149857;28;20172;-93
2023/11/22 03:16:24;;;;;;;7.67;3.83;;;7.20;99.90;;;;;;4149812;28;20295;-93
2023/11/22 03:18:26;;;;;;;12.50;4.50;;;7.10;99.90;;;;;;4165921;28;20196;-92
2023/11/22 03:20:27;;;;;;;13.70;5.57;;;7.00;99.90;;;;;;4149519;28;20746;-91
2023/11/22 03:22:31;;;;;;;8.23;3.73;;;6.90;99.90;;;;;;4149636;28;20576;-94
2023/11/22 03:24:34;;;;;;;9.03;3.67;;;6.70;99.90;;;;;;4165845;28;20218;-92
2023/11/22 03:26:35;;;;;;;8.50;3.93;;;6.40;99.90;;;;;;4149607;28;20227;-92
2023/11/22 03:28:36;;;;;;;8.93;3.80;;;6.50;99.90;;;;;;4165709;28;20192;-93
2023/11/22 03:30:37;;;;;;;10.63;5.53;;;6.60;99.90;;;;;;4149053;28;20256;-93
2023/11/22 03:32:39;;;;;;;10.37;4.43;;;6.60;99.90;;;;;;4165497;28;20216;-91
2023/11/22 03:34:40;;;;;;;9.87;4.63;;;6.50;99.90;;;;;;4149460;28;20173;-92
2023/11/22 03:36:41;;;;;;;10.90;4.17;;;6.50;99.90;;;;;;4165681;28;20172;-93
2023/11/22 03:38:41;;;;;;;10.60;4.87;;;6.40;99.90;;;;;;4149370;28;20279;-92
2023/11/22 03:40:42;;;;;;;9.57;4.20;;;6.30;99.90;;;;;;4165817;28;20177;-92
2023/11/22 03:42:43;;;;;;;10.53;5.30;;;6.20;99.90;;;;;;4149455;28;20201;-92
2023/11/22 03:44:44;;;;;;;10.53;4.80;;;6.10;99.90;;;;;;4165806;28;20173;-93
2023/11/22 03:46:45;;;;;;;11.60;4.83;;;6.10;99.90;;;;;;4149652;28;20172;-93
2023/11/22 03:48:45;;;;;;;15.63;6.60;;;6.20;99.90;;;;;;4166008;28;20192;-92
2023/11/22 03:50:46;;;;;;;14.00;5.60;;;6.30;99.90;;;;;;4149233;28;20275;-91
2023/11/22 03:52:47;;;;;;;9.03;5.13;;;6.10;99.90;;;;;;4165838;28;20283;-93
2023/11/22 03:54:48;;;;;;;11.67;4.53;;;6.20;99.90;;;;;;4149374;28;20576;-93
2023/11/22 03:56:48;;;;;;;8.13;4.63;;;5.90;99.90;;;;;;4149225;28;20613;-93
2023/11/22 03:58:49;;;;;;;11.50;4.47;;;5.50;99.90;;;;;;4165602;28;20267;-94
2023/11/22 04:00:52;;;;;;;6.10;3.03;;;5.20;99.90;;;;;;4149394;28;20207;-94
2023/11/22 04:02:53;;;;;;;11.70;4.30;;;4.80;99.90;;;;;;4149165;28;20173;-93
2023/11/22 04:04:54;;;;;;;9.80;4.27;;;4.70;99.90;;;;;;4165413;28;20172;-93
2023/11/22 04:06:55;;;;;;;8.47;4.33;;;4.40;99.90;;;;;;4148303;28;20173;-94
2023/11/22 04:08:56;;;;;;;10.20;4.57;;;4.40;99.90;;;;;;4149085;28;20718;-94
2023/11/22 04:10:56;;;;;;;9.50;4.17;;;4.40;99.90;;;;;;4149045;28;20231;-92
2023/11/22 04:12:57;;;;;;;12.30;4.73;;;4.40;99.90;;;;;;4148926;28;20173;-94
2023/11/22 04:14:58;;;;;;;6.73;3.97;;;4.40;99.90;;;;;;4148776;28;20176;-93
2023/11/22 04:16:59;;;;;;;9.63;3.13;;;4.40;99.90;;;;;;4148993;28;20212;-92
2023/11/22 04:19:00;;;;;;;11.57;4.57;;;4.40;99.90;;;;;;4148716;28;20222;-92
2023/11/22 04:21:01;;;;;;;9.03;3.63;;;4.50;99.90;;;;;;4148761;28;20188;-94
2023/11/22 04:23:01;;;;;;;8.50;3.43;;;4.60;99.90;;;;;;4148859;28;20173;-94
2023/11/22 04:25:04;;;;;;;8.37;4.47;;;4.60;99.90;;;;;;4165190;28;20242;-94
2023/11/22 04:27:06;;;;;;;8.57;3.77;;;4.70;99.90;;;;;;4164869;28;20181;-92
2023/11/22 04:29:07;;;;;;;9.57;3.90;;;4.60;99.90;;;;;;4148449;28;20197;-94
2023/11/22 04:31:10;;;;;;;10.67;5.07;;;5.20;99.90;;;;;;4164809;28;20306;-92
2023/11/22 04:33:11;;;;;;;9.20;4.97;;;5.80;99.90;;;;;;4148614;28;20177;-94
2023/11/22 04:35:13;;;;;;;10.90;4.23;;;5.80;99.90;;;;;;4148352;28;20215;-92
2023/11/22 04:37:14;;;;;;;6.90;3.70;;;5.60;99.90;;;;;;4164957;28;20270;-93
2023/11/22 04:39:15;;;;;;;10.67;3.80;;;5.50;99.90;;;;;;4164748;28;20230;-95
2023/11/22 04:41:18;;;;;;;7.27;3.73;;;5.30;99.90;;;;;;4148779;28;20664;-93
2023/11/22 04:43:19;;;;;;;12.93;4.83;;;5.30;99.90;;;;;;4148414;28;20165;-93
2023/11/22 04:45:20;;;;;;;12.67;5.43;;;5.20;99.90;;;;;;4148582;28;20195;-93
2023/11/22 04:47:22;;;;;;;13.37;5.03;;;5.40;99.90;;;;;;4148706;28;20192;-93
2023/11/22 04:49:22;;;;;;;9.30;4.43;;;5.90;99.90;;;;;;4148336;28;20201;-94
2023/11/22 04:51:24;;;;;;;11.47;5.30;;;5.80;99.90;;;;;;4148299;28;20705;-92
2023/11/22 09:29:04;;;;;;;13.55;5.43;;;7.90;99.90;;;;;;4544908;22;20247;-94
2023/11/22 09:31:08;;;;;;;12.98;5.78;;;8.00;99.90;;;;;;4147967;28;20641;-94
2023/11/22 09:33:14;;;;;;;11.07;5.32;;;8.00;99.90;;;;;;4148039;28;20219;-93
2023/11/22 09:35:16;;;;;;;11.98;5.30;;;7.90;99.90;;;;;;4147927;28;20235;-94
2023/11/22 09:37:17;;;;;;;12.27;5.32;;;7.60;99.90;;;;;;4148016;28;20173;-93
2023/11/22 09:39:21;;;;;;;13.00;4.97;;;7.70;99.90;;;;;;4147952;28;20253;-94
2023/11/22 10:04:01;;;;;;;12.10;4.38;;;7.70;99.90;;;;;;4988977;22;20194;-96
2023/11/22 10:07:03;;;;;;;12.20;5.00;;;7.50;99.90;;;;;;4181365;28;20299;-95
2023/11/22 10:09:23;;;;;;;12.15;4.90;;;7.30;99.90;;;;;;4159783;28;20200;-95
